First Ferry Viii — VRS4306 — position and weather

sailwx.info

Track history (hours):
 
Tides and Currents Weather Stations Pressure Air Temp Water Temp Dewpoint Dewpoint Depression Visibility Wind Speed Wind Dir Waves Ship Positions

First Ferry Viii

Last reported at 2014-Oct-25 16:33 UTC. Time now 2014-Oct-25 20:42 UTC.
Position N 22°17' E 114°10'.

Length 36 m; draft 1.8 m.

Type: High speed craft. MMSI: 477995030.

Date/timePositionNaut miles runAvg speedWind from/ knotsBaromVisibWave heightAir tempDewpointWater temp
2014-Oct-25 16:33N 22°17' E 114°10'1 0.8
2014-Oct-25 15:08N 22°18' E 114°08'1 1.9
2014-Oct-25 14:33N 22°17' E 114°10'2 1.2
2014-Oct-25 13:09N 22°18' E 114°08'1 1.5
2014-Oct-25 12:33N 22°18' E 114°09'1 0.2
2014-Oct-25 09:13N 22°17' E 114°10'0 0.0
2014-Oct-25 07:18N 22°17' E 114°10'0 0.0
2014-Oct-25 05:18N 22°17' E 114°10'0 0.0
2014-Oct-25 03:32N 22°17' E 114°10'0 0.0
2014-Oct-25 01:32N 22°17' E 114°10'1 1.0
2014-Oct-25 00:07N 22°18' E 114°08'1 2.3
2014-Oct-24 23:34N 22°17' E 114°09'0 0.0
2014-Oct-24 16:17N 22°17' E 114°10'1 1.1
2014-Oct-24 15:09N 22°18' E 114°08'1 2.0
2014-Oct-24 14:31N 22°17' E 114°10'1 0.9
2014-Oct-24 13:07N 22°18' E 114°08'1 0.3
2014-Oct-24 09:19N 22°17' E 114°09'0 0.1
2014-Oct-24 07:26N 22°17' E 114°10'0 0.0
2014-Oct-24 05:29N 22°17' E 114°10'3 2.3
2014-Oct-24 04:23N 22°19' E 114°12'0 0.0
2014-Oct-24 03:33N 22°19' E 114°12'3 1.3
2014-Oct-24 01:33N 22°17' E 114°10'1 0.9
2014-Oct-24 00:08N 22°18' E 114°08'1 2.2
2014-Oct-23 23:33N 22°17' E 114°10'0 0.0
2014-Oct-23 16:17N 22°17' E 114°10'1 1.1
2014-Oct-23 15:08N 22°18' E 114°08'1 1.9
2014-Oct-23 14:31N 22°17' E 114°10'1 0.7
2014-Oct-23 13:07N 22°18' E 114°09'1 0.9
2014-Oct-23 12:33N 22°18' E 114°09'0 0.1
2014-Oct-23 05:27N 22°17' E 114°10'3 2.9
2014-Oct-23 04:33N 22°19' E 114°12'0 0.0
2014-Oct-23 03:33N 22°19' E 114°12'2 2.1
2014-Oct-23 02:26N 22°17' E 114°10'0 0.4
2014-Oct-23 01:33N 22°17' E 114°10'1 0.7
2014-Oct-23 00:09N 22°18' E 114°08'1 1.2
2014-Oct-22 23:33N 22°17' E 114°09'0 0.0
2014-Oct-22 16:33N 22°18' E 114°09'1 0.7
2014-Oct-22 15:09N 22°18' E 114°08'1 2.0
2014-Oct-22 14:32N 22°17' E 114°10'1 1.0
2014-Oct-22 13:08N 22°18' E 114°08'1 1.8
2014-Oct-22 12:34N 22°18' E 114°09'0 0.1
2014-Oct-22 09:13N 22°17' E 114°10'0 0.0
2014-Oct-22 07:22N 22°17' E 114°10'0 0.0
2014-Oct-22 05:26N 22°17' E 114°10'0 0.0
2014-Oct-22 01:33N 22°17' E 114°10'1 0.8
2014-Oct-22 00:09N 22°18' E 114°08'1 1.6
2014-Oct-21 23:32N 22°17' E 114°10'0 0.0
2014-Oct-21 16:33N 22°17' E 114°10'1 0.8
2014-Oct-21 15:08N 22°18' E 114°08'1 1.9
2014-Oct-21 14:31N 22°17' E 114°10'1 0.7
2014-Oct-21 13:08N 22°18' E 114°09'1 1.0
2014-Oct-21 12:08N 22°17' E 114°10'1 1.3
2014-Oct-21 11:07N 22°18' E 114°08'1 0.7
2014-Oct-21 09:19N 22°17' E 114°10'0 0.0
2014-Oct-21 07:20N 22°17' E 114°10'0 0.0
2014-Oct-21 05:26N 22°17' E 114°10'3 2.7
2014-Oct-21 04:29N 22°19' E 114°12'0 0.0
2014-Oct-21 03:34N 22°19' E 114°12'2 1.6
2014-Oct-21 02:31N 22°18' E 114°11'1 1.2
2014-Oct-21 01:31N 22°17' E 114°09'2 1.1
2014-Oct-21 00:09N 22°18' E 114°08'2 2.8
2014-Oct-20 23:33N 22°17' E 114°10'0 0.0
2014-Oct-20 16:18N 22°17' E 114°10'1 1.1
2014-Oct-20 15:08N 22°18' E 114°08'1 2.1
2014-Oct-20 14:31N 22°17' E 114°10'1 1.0
2014-Oct-20 13:09N 22°18' E 114°08'1 1.2
2014-Oct-20 12:09N 22°17' E 114°10'1 1.3
2014-Oct-20 11:08N 22°18' E 114°08'1 0.8
2014-Oct-20 09:20N 22°17' E 114°10'0 0.0
2014-Oct-20 07:19N 22°17' E 114°10'0 0.0
2014-Oct-20 05:26N 22°17' E 114°10'0 0.0
2014-Oct-20 01:33N 22°17' E 114°09'1 0.9
2014-Oct-20 00:11N 22°18' E 114°08'1 2.2
2014-Oct-19 23:33N 22°17' E 114°10'0 0.0
2014-Oct-19 16:33N 22°17' E 114°10'1 0.9
2014-Oct-19 15:09N 22°18' E 114°08'1 2.3
2014-Oct-19 14:33N 22°17' E 114°10'1 1.0
2014-Oct-19 13:09N 22°18' E 114°08'1 2.0
2014-Oct-19 12:25N 22°17' E 114°10'2 1.2
2014-Oct-19 11:10N 22°18' E 114°08'2 2.1
2014-Oct-19 10:26N 22°17' E 114°10'1 1.1
2014-Oct-19 09:10N 22°18' E 114°08'1 1.9
2014-Oct-19 08:26N 22°17' E 114°10'0 0.1
2014-Oct-19 06:33N 22°17' E 114°09'1 0.8
2014-Oct-19 05:07N 22°18' E 114°08'1 2.5
2014-Oct-19 04:33N 22°17' E 114°10'0 0.0
2014-Oct-18 23:33N 22°17' E 114°10'0 0.0
2014-Oct-18 16:33N 22°17' E 114°10'1 0.8
2014-Oct-18 15:07N 22°18' E 114°08'1 2.0
2014-Oct-18 14:33N 22°17' E 114°10'1 1.0
2014-Oct-18 13:09N 22°18' E 114°08'1 2.4
2014-Oct-18 12:33N 22°17' E 114°10'1 1.0
2014-Oct-18 11:09N 22°18' E 114°08'1 0.7
2014-Oct-18 09:15N 22°17' E 114°10'0 0.1
2014-Oct-18 07:20N 22°17' E 114°10'0 0.0
2014-Oct-18 03:28N 22°17' E 114°10'0 0.1
2014-Oct-18 01:34N 22°17' E 114°09'1 0.8
2014-Oct-18 00:08N 22°18' E 114°08'1 2.2
2014-Oct-17 23:33N 22°17' E 114°10'0 0.0
2014-Oct-17 16:33N 22°17' E 114°10'1 0.9
2014-Oct-17 15:08N 22°18' E 114°08'3 0.3
2014-Oct-17 05:11N 22°19' E 114°12'0 0.1
2014-Oct-17 04:33N 22°19' E 114°12'0 0.0
2014-Oct-17 03:33N 22°19' E 114°12'3 2.5
2014-Oct-17 02:33N 22°17' E 114°09'0 0.2
2014-Oct-17 01:33N 22°17' E 114°10'1 0.9
2014-Oct-17 00:09N 22°18' E 114°08'1 2.2
2014-Oct-16 23:33N 22°17' E 114°10'0 0.0
2014-Oct-16 16:32N 22°17' E 114°10'1 0.9
2014-Oct-16 15:08N 22°18' E 114°08'1 2.2
2014-Oct-16 14:31N 22°17' E 114°10'1 0.9
2014-Oct-16 13:08N 22°18' E 114°08'1 1.3
2014-Oct-16 12:08N 22°17' E 114°10'1 1.2
2014-Oct-16 11:06N 22°18' E 114°08'1 0.7
2014-Oct-16 09:20N 22°17' E 114°10'0 0.0
2014-Oct-16 07:26N 22°17' E 114°10'3 0.9
2014-Oct-16 04:33N 22°19' E 114°12'0 0.0
2014-Oct-16 03:32N 22°19' E 114°12'3 1.3
2014-Oct-16 01:33N 22°17' E 114°10'1 0.9
2014-Oct-16 00:08N 22°18' E 114°08'1 1.9
2014-Oct-15 23:31N 22°17' E 114°09'  
Track history (hours):
 
Tides and Currents Weather Stations Pressure Air Temp Water Temp Dewpoint Dewpoint Depression Visibility Wind Speed Wind Dir Waves Ship Positions

First Ferry Viii

Last reported at 2014-Oct-25 16:33 UTC. Time now 2014-Oct-25 20:42 UTC.
Position N 22°17' E 114°10'.

Length 36 m; draft 1.8 m.

Type: High speed craft. MMSI: 477995030.

Date/timePositionNaut miles runAvg speedWind from/ knotsBaromVisibWave heightAir tempDewpointWater temp
2014-Oct-25 16:33N 22°17' E 114°10'1 0.8
2014-Oct-25 15:08N 22°18' E 114°08'1 1.9
2014-Oct-25 14:33N 22°17' E 114°10'2 1.2
2014-Oct-25 13:09N 22°18' E 114°08'1 1.5
2014-Oct-25 12:33N 22°18' E 114°09'1 0.2
2014-Oct-25 09:13N 22°17' E 114°10'0 0.0
2014-Oct-25 07:18N 22°17' E 114°10'0 0.0
2014-Oct-25 05:18N 22°17' E 114°10'0 0.0
2014-Oct-25 03:32N 22°17' E 114°10'0 0.0
2014-Oct-25 01:32N 22°17' E 114°10'1 1.0
2014-Oct-25 00:07N 22°18' E 114°08'1 2.3
2014-Oct-24 23:34N 22°17' E 114°09'0 0.0
2014-Oct-24 16:17N 22°17' E 114°10'1 1.1
2014-Oct-24 15:09N 22°18' E 114°08'1 2.0
2014-Oct-24 14:31N 22°17' E 114°10'1 0.9
2014-Oct-24 13:07N 22°18' E 114°08'1 0.3
2014-Oct-24 09:19N 22°17' E 114°09'0 0.1
2014-Oct-24 07:26N 22°17' E 114°10'0 0.0
2014-Oct-24 05:29N 22°17' E 114°10'3 2.3
2014-Oct-24 04:23N 22°19' E 114°12'0 0.0
2014-Oct-24 03:33N 22°19' E 114°12'3 1.3
2014-Oct-24 01:33N 22°17' E 114°10'1 0.9
2014-Oct-24 00:08N 22°18' E 114°08'1 2.2
2014-Oct-23 23:33N 22°17' E 114°10'0 0.0
2014-Oct-23 16:17N 22°17' E 114°10'1 1.1
2014-Oct-23 15:08N 22°18' E 114°08'1 1.9
2014-Oct-23 14:31N 22°17' E 114°10'1 0.7
2014-Oct-23 13:07N 22°18' E 114°09'1 0.9
2014-Oct-23 12:33N 22°18' E 114°09'0 0.1
2014-Oct-23 05:27N 22°17' E 114°10'3 2.9
2014-Oct-23 04:33N 22°19' E 114°12'0 0.0
2014-Oct-23 03:33N 22°19' E 114°12'2 2.1
2014-Oct-23 02:26N 22°17' E 114°10'0 0.4
2014-Oct-23 01:33N 22°17' E 114°10'1 0.7
2014-Oct-23 00:09N 22°18' E 114°08'1 1.2
2014-Oct-22 23:33N 22°17' E 114°09'0 0.0
2014-Oct-22 16:33N 22°18' E 114°09'1 0.7
2014-Oct-22 15:09N 22°18' E 114°08'1 2.0
2014-Oct-22 14:32N 22°17' E 114°10'1 1.0
2014-Oct-22 13:08N 22°18' E 114°08'1 1.8
2014-Oct-22 12:34N 22°18' E 114°09'0 0.1
2014-Oct-22 09:13N 22°17' E 114°10'0 0.0
2014-Oct-22 07:22N 22°17' E 114°10'0 0.0
2014-Oct-22 05:26N 22°17' E 114°10'0 0.0
2014-Oct-22 01:33N 22°17' E 114°10'1 0.8
2014-Oct-22 00:09N 22°18' E 114°08'1 1.6
2014-Oct-21 23:32N 22°17' E 114°10'0 0.0
2014-Oct-21 16:33N 22°17' E 114°10'1 0.8
2014-Oct-21 15:08N 22°18' E 114°08'1 1.9
2014-Oct-21 14:31N 22°17' E 114°10'1 0.7
2014-Oct-21 13:08N 22°18' E 114°09'1 1.0
2014-Oct-21 12:08N 22°17' E 114°10'1 1.3
2014-Oct-21 11:07N 22°18' E 114°08'1 0.7
2014-Oct-21 09:19N 22°17' E 114°10'0 0.0
2014-Oct-21 07:20N 22°17' E 114°10'0 0.0
2014-Oct-21 05:26N 22°17' E 114°10'3 2.7
2014-Oct-21 04:29N 22°19' E 114°12'0 0.0
2014-Oct-21 03:34N 22°19' E 114°12'2 1.6
2014-Oct-21 02:31N 22°18' E 114°11'1 1.2
2014-Oct-21 01:31N 22°17' E 114°09'2 1.1
2014-Oct-21 00:09N 22°18' E 114°08'2 2.8
2014-Oct-20 23:33N 22°17' E 114°10'0 0.0
2014-Oct-20 16:18N 22°17' E 114°10'1 1.1
2014-Oct-20 15:08N 22°18' E 114°08'1 2.1
2014-Oct-20 14:31N 22°17' E 114°10'1 1.0
2014-Oct-20 13:09N 22°18' E 114°08'1 1.2
2014-Oct-20 12:09N 22°17' E 114°10'1 1.3
2014-Oct-20 11:08N 22°18' E 114°08'1 0.8
2014-Oct-20 09:20N 22°17' E 114°10'0 0.0
2014-Oct-20 07:19N 22°17' E 114°10'0 0.0
2014-Oct-20 05:26N 22°17' E 114°10'0 0.0
2014-Oct-20 01:33N 22°17' E 114°09'1 0.9
2014-Oct-20 00:11N 22°18' E 114°08'1 2.2
2014-Oct-19 23:33N 22°17' E 114°10'0 0.0
2014-Oct-19 16:33N 22°17' E 114°10'1 0.9
2014-Oct-19 15:09N 22°18' E 114°08'1 2.3
2014-Oct-19 14:33N 22°17' E 114°10'1 1.0
2014-Oct-19 13:09N 22°18' E 114°08'1 2.0
2014-Oct-19 12:25N 22°17' E 114°10'2 1.2
2014-Oct-19 11:10N 22°18' E 114°08'2 2.1
2014-Oct-19 10:26N 22°17' E 114°10'1 1.1
2014-Oct-19 09:10N 22°18' E 114°08'1 1.9
2014-Oct-19 08:26N 22°17' E 114°10'0 0.1
2014-Oct-19 06:33N 22°17' E 114°09'1 0.8
2014-Oct-19 05:07N 22°18' E 114°08'1 2.5
2014-Oct-19 04:33N 22°17' E 114°10'0 0.0
2014-Oct-18 23:33N 22°17' E 114°10'0 0.0
2014-Oct-18 16:33N 22°17' E 114°10'1 0.8
2014-Oct-18 15:07N 22°18' E 114°08'1 2.0
2014-Oct-18 14:33N 22°17' E 114°10'1 1.0
2014-Oct-18 13:09N 22°18' E 114°08'1 2.4
2014-Oct-18 12:33N 22°17' E 114°10'1 1.0
2014-Oct-18 11:09N 22°18' E 114°08'1 0.7
2014-Oct-18 09:15N 22°17' E 114°10'0 0.1
2014-Oct-18 07:20N 22°17' E 114°10'0 0.0
2014-Oct-18 03:28N 22°17' E 114°10'0 0.1
2014-Oct-18 01:34N 22°17' E 114°09'1 0.8
2014-Oct-18 00:08N 22°18' E 114°08'1 2.2
2014-Oct-17 23:33N 22°17' E 114°10'0 0.0
2014-Oct-17 16:33N 22°17' E 114°10'1 0.9
2014-Oct-17 15:08N 22°18' E 114°08'3 0.3
2014-Oct-17 05:11N 22°19' E 114°12'0 0.1
2014-Oct-17 04:33N 22°19' E 114°12'0 0.0
2014-Oct-17 03:33N 22°19' E 114°12'3 2.5
2014-Oct-17 02:33N 22°17' E 114°09'0 0.2
2014-Oct-17 01:33N 22°17' E 114°10'1 0.9
2014-Oct-17 00:09N 22°18' E 114°08'1 2.2
2014-Oct-16 23:33N 22°17' E 114°10'0 0.0
2014-Oct-16 16:32N 22°17' E 114°10'1 0.9
2014-Oct-16 15:08N 22°18' E 114°08'1 2.2
2014-Oct-16 14:31N 22°17' E 114°10'1 0.9
2014-Oct-16 13:08N 22°18' E 114°08'1 1.3
2014-Oct-16 12:08N 22°17' E 114°10'1 1.2
2014-Oct-16 11:06N 22°18' E 114°08'1 0.7
2014-Oct-16 09:20N 22°17' E 114°10'0 0.0
2014-Oct-16 07:26N 22°17' E 114°10'3 0.9
2014-Oct-16 04:33N 22°19' E 114°12'0 0.0
2014-Oct-16 03:32N 22°19' E 114°12'3 1.3
2014-Oct-16 01:33N 22°17' E 114°10'1 0.9
2014-Oct-16 00:08N 22°18' E 114°08'1 1.9
2014-Oct-15 23:31N 22°17' E 114°09'  

Dump ship's entire track history